Terminal Aerodrome Forecast
Issued by NWS

Home | Current Version | Previous Version | Text Only | Print | Product List | Glossary On
Versions: 1 2 3 4 5 6 7 8 9 10 11 12 13 14 15
000
FTUS43 KMQT 191700
TAFSAW
TAF
KSAW 191735Z 1918/2018 00000KT P6SM BKN020
     FM192200 00000KT P6SM BKN025
     FM200000 00000KT P6SM SCT025
     FM200800 21003KT 6SM BR BKN020
     FM201700 20005KT P6SM OVC025
      AMD LTD TO CLD VIS AND WIND 2003/2011=

USA.gov is the U.S. government's official web portal to all federal, state and local government web resources and services.